Brownstown, PA (17508)

8:34 AM EDT on March 24, 2017 (GMT -0400)
Village of Oregon | | Change Station

Elev 426 ft 40.12 °N, 76.25 °W | Updated 23 seconds ago

Mostly Cloudy
Mostly Cloudy
36.9 °F
Feels Like 37 °F
N
2.2
Wind Variable Wind from SSE

Today
High -- | Low -- °F
--% Chance of Precip.
Yesterday
High -- | Low -- °F
Precip. -- in
Pressure 30.43 in
Visibility 10.0 miles
Clouds Clear
Windchill 37 °F
Dew Point 26 °F
Humidity 65%
Rainfall 0.00 in
Snow Depth Not available.
7:01 AM 7:21 PM
Waning Crescent, 15% visible
METAR KLNS 241153Z 18007KT 10SM CLR 02/M03 A3042 RMK AO2 SLP303 T00221033 10022 21022 55009
Pressure 30.43 in
Visibility 10.0 miles
Clouds Clear
Windchill 37 °F
Dew Point 26 °F
Humidity 65%
Rainfall 0.00 in
Snow Depth Not available.
7:01 AM 7:21 PM
Waning Crescent, 15% visible
METAR KLNS 241153Z 18007KT 10SM CLR 02/M03 A3042 RMK AO2 SLP303 T00221033 10022 21022 55009

Get Severe Weather Alerts

Thanks for signing up!

Be on the lookout for a verification email in your inbox.

You'll start receiving the daily forecast at 8 AM.

×

10-Day Weather Forecast

Almanac

Astronomy

Mar. 24, 2017 Rise Set
Actual Time
Civil Twilight
Nautical Twilight
Astronomical Twilight
Moon
Length of Visible Light
Length of Day
Tomorrow will be .
, % of the Moon is Illuminated

Today's Extremes

State Highs State Lows

Community

WunderPhotos

Upload Photos

1,962,540 photos uploaded!

WunderBlog® & News

Nearby

Air Quality

  Air Quality AQ Index Pollutant
Not available.

Snow Depth

Station Depth Elevation

Earthquake Activity

City Distance Mag. Time & Date
Minimum magnitude displayed is 2.5.

Earthquake Activity

City Distance Mag. Time & Date
Minimum magnitude displayed is 2.5.

Coastal Water Temperatures

Place Temperature

Stations

Nearby Weather Stations

Station Location Temp. Windchill Dew Point Humidity Wind Precip. Elev Updated Type
                   

Watches & Warnings

There are currently no watches in effect.